sensor_id;sensor_type;location;lat;lon;timestamp;pressure;altitude;pressure_sealevel;temperature;humidity
60817;BME280;51921;51.518;-3.188;2023-06-22T00:01:05;101484.52;;;17.21;85.70
60817;BME280;51921;51.518;-3.188;2023-06-22T00:03:31;101482.33;;;17.87;82.36
60817;BME280;51921;51.518;-3.188;2023-06-22T00:05:56;101485.55;;;18.65;79.90
60817;BME280;51921;51.518;-3.188;2023-06-22T00:08:22;101489.27;;;18.67;79.62
60817;BME280;51921;51.518;-3.188;2023-06-22T00:10:47;101491.50;;;17.96;83.73
60817;BME280;51921;51.518;-3.188;2023-06-22T00:13:13;101491.89;;;17.36;85.67
60817;BME280;51921;51.518;-3.188;2023-06-22T00:15:39;101493.02;;;17.38;85.51
60817;BME280;51921;51.518;-3.188;2023-06-22T00:18:04;101489.28;;;17.92;82.76
60817;BME280;51921;51.518;-3.188;2023-06-22T00:20:28;101489.35;;;17.70;82.85
60817;BME280;51921;51.518;-3.188;2023-06-22T00:22:54;101491.93;;;17.83;81.26
60817;BME280;51921;51.518;-3.188;2023-06-22T00:25:20;101498.27;;;17.73;80.40
60817;BME280;51921;51.518;-3.188;2023-06-22T00:27:45;101499.57;;;18.73;75.28
60817;BME280;51921;51.518;-3.188;2023-06-22T00:30:11;101496.05;;;17.14;81.76
60817;BME280;51921;51.518;-3.188;2023-06-22T00:32:35;101497.12;;;18.24;77.61
60817;BME280;51921;51.518;-3.188;2023-06-22T00:35:01;101487.83;;;19.60;71.55
60817;BME280;51921;51.518;-3.188;2023-06-22T00:37:26;101492.03;;;18.52;75.57
60817;BME280;51921;51.518;-3.188;2023-06-22T00:39:51;101489.73;;;18.85;73.80
60817;BME280;51921;51.518;-3.188;2023-06-22T00:42:17;101489.75;;;20.04;69.30
60817;BME280;51921;51.518;-3.188;2023-06-22T00:44:42;101490.95;;;17.93;73.90
60817;BME280;51921;51.518;-3.188;2023-06-22T00:47:08;101491.35;;;18.30;74.95
60817;BME280;51921;51.518;-3.188;2023-06-22T00:49:33;101489.90;;;18.62;72.07
60817;BME280;51921;51.518;-3.188;2023-06-22T00:51:58;101488.38;;;18.22;73.85
60817;BME280;51921;51.518;-3.188;2023-06-22T00:54:24;101490.91;;;17.84;75.53
60817;BME280;51921;51.518;-3.188;2023-06-22T00:56:49;101493.17;;;18.46;74.24
60817;BME280;51921;51.518;-3.188;2023-06-22T00:59:14;101493.92;;;18.59;72.15
60817;BME280;51921;51.518;-3.188;2023-06-22T01:01:39;101494.09;;;18.08;74.10
60817;BME280;51921;51.518;-3.188;2023-06-22T01:04:05;101495.90;;;17.88;76.26
60817;BME280;51921;51.518;-3.188;2023-06-22T01:06:35;101501.10;;;18.52;74.47
60817;BME280;51921;51.518;-3.188;2023-06-22T01:09:02;101501.34;;;17.97;76.57
60817;BME280;51921;51.518;-3.188;2023-06-22T01:11:25;101507.18;;;17.29;79.67
60817;BME280;51921;51.518;-3.188;2023-06-22T01:13:52;101507.09;;;16.44;84.90
60817;BME280;51921;51.518;-3.188;2023-06-22T01:16:15;101503.67;;;16.43;86.60
60817;BME280;51921;51.518;-3.188;2023-06-22T01:18:41;101504.86;;;16.38;86.23
60817;BME280;51921;51.518;-3.188;2023-06-22T01:21:04;101507.51;;;16.50;87.48
60817;BME280;51921;51.518;-3.188;2023-06-22T01:23:36;101508.01;;;17.36;83.11
60817;BME280;51921;51.518;-3.188;2023-06-22T01:26:02;101510.40;;;15.97;89.31
60817;BME280;51921;51.518;-3.188;2023-06-22T01:30:45;101511.81;;;17.08;84.13
60817;BME280;51921;51.518;-3.188;2023-06-22T01:33:11;101514.75;;;16.51;86.87
60817;BME280;51921;51.518;-3.188;2023-06-22T01:35:34;101517.51;;;17.21;84.69
60817;BME280;51921;51.518;-3.188;2023-06-22T01:38:00;101519.63;;;16.95;85.14
60817;BME280;51921;51.518;-3.188;2023-06-22T01:40:26;101520.95;;;16.31;86.45
60817;BME280;51921;51.518;-3.188;2023-06-22T01:42:51;101520.06;;;16.49;86.70
60817;BME280;51921;51.518;-3.188;2023-06-22T01:45:16;101516.07;;;17.09;84.32
60817;BME280;51921;51.518;-3.188;2023-06-22T01:47:41;101514.43;;;17.11;85.50
60817;BME280;51921;51.518;-3.188;2023-06-22T01:50:07;101520.02;;;16.26;87.80
60817;BME280;51921;51.518;-3.188;2023-06-22T01:52:32;101524.30;;;15.63;92.16
60817;BME280;51921;51.518;-3.188;2023-06-22T01:54:57;101521.68;;;15.75;92.81
60817;BME280;51921;51.518;-3.188;2023-06-22T01:57:22;101526.19;;;16.46;90.75
60817;BME280;51921;51.518;-3.188;2023-06-22T01:59:55;101529.53;;;16.80;89.76
60817;BME280;51921;51.518;-3.188;2023-06-22T02:02:16;101534.90;;;15.52;93.44
60817;BME280;51921;51.518;-3.188;2023-06-22T02:04:44;101531.05;;;16.39;88.85
60817;BME280;51921;51.518;-3.188;2023-06-22T02:07:09;101527.70;;;17.22;85.20
60817;BME280;51921;51.518;-3.188;2023-06-22T02:09:30;101532.02;;;16.67;86.31
60817;BME280;51921;51.518;-3.188;2023-06-22T02:11:56;101535.21;;;16.10;87.93
60817;BME280;51921;51.518;-3.188;2023-06-22T02:14:20;101534.54;;;16.19;87.91
60817;BME280;51921;51.518;-3.188;2023-06-22T02:16:46;101534.51;;;15.82;90.50
60817;BME280;51921;51.518;-3.188;2023-06-22T02:19:11;101534.08;;;16.95;86.36
60817;BME280;51921;51.518;-3.188;2023-06-22T02:21:36;101533.09;;;15.79;92.54
60817;BME280;51921;51.518;-3.188;2023-06-22T02:24:02;101532.61;;;15.75;93.31
60817;BME280;51921;51.518;-3.188;2023-06-22T02:26:27;101535.02;;;15.73;94.22
60817;BME280;51921;51.518;-3.188;2023-06-22T02:28:52;101533.95;;;15.65;93.24
60817;BME280;51921;51.518;-3.188;2023-06-22T02:31:18;101535.72;;;15.84;91.47
60817;BME280;51921;51.518;-3.188;2023-06-22T02:33:43;101533.52;;;15.64;92.52
60817;BME280;51921;51.518;-3.188;2023-06-22T02:36:08;101537.29;;;15.93;93.16
60817;BME280;51921;51.518;-3.188;2023-06-22T02:38:33;101531.72;;;15.16;94.71
60817;BME280;51921;51.518;-3.188;2023-06-22T02:40:59;101535.67;;;15.62;93.78
60817;BME280;51921;51.518;-3.188;2023-06-22T02:43:24;101536.30;;;15.85;91.49
60817;BME280;51921;51.518;-3.188;2023-06-22T02:45:50;101535.62;;;16.53;87.64
60817;BME280;51921;51.518;-3.188;2023-06-22T02:48:15;101534.30;;;16.17;87.78
60817;BME280;51921;51.518;-3.188;2023-06-22T02:50:40;101533.21;;;16.99;85.16
60817;BME280;51921;51.518;-3.188;2023-06-22T02:53:06;101535.43;;;16.93;85.44
60817;BME280;51921;51.518;-3.188;2023-06-22T02:55:31;101534.78;;;16.38;84.84
60817;BME280;51921;51.518;-3.188;2023-06-22T02:57:56;101535.90;;;16.34;84.87
60817;BME280;51921;51.518;-3.188;2023-06-22T03:00:22;101535.96;;;16.73;83.48
60817;BME280;51921;51.518;-3.188;2023-06-22T03:02:48;101535.53;;;17.20;83.56
60817;BME280;51921;51.518;-3.188;2023-06-22T03:05:13;101533.12;;;16.77;84.02
60817;BME280;51921;51.518;-3.188;2023-06-22T03:07:38;101534.23;;;17.84;80.17
60817;BME280;51921;51.518;-3.188;2023-06-22T03:10:04;101534.74;;;16.93;81.54
60817;BME280;51921;51.518;-3.188;2023-06-22T03:12:28;101535.80;;;17.00;82.03
60817;BME280;51921;51.518;-3.188;2023-06-22T03:14:54;101538.63;;;16.64;82.03
60817;BME280;51921;51.518;-3.188;2023-06-22T03:17:19;101541.34;;;15.48;91.32
60817;BME280;51921;51.518;-3.188;2023-06-22T03:19:45;101538.99;;;16.43;85.91
60817;BME280;51921;51.518;-3.188;2023-06-22T03:22:10;101535.62;;;16.45;85.78
60817;BME280;51921;51.518;-3.188;2023-06-22T03:24:36;101538.42;;;15.76;87.93
60817;BME280;51921;51.518;-3.188;2023-06-22T03:27:01;101536.82;;;16.07;87.60
60817;BME280;51921;51.518;-3.188;2023-06-22T03:29:26;101538.03;;;16.35;87.70
60817;BME280;51921;51.518;-3.188;2023-06-22T03:31:52;101538.63;;;16.32;89.84
60817;BME280;51921;51.518;-3.188;2023-06-22T03:34:17;101540.45;;;15.77;91.94
60817;BME280;51921;51.518;-3.188;2023-06-22T03:36:43;101534.79;;;15.82;91.53
60817;BME280;51921;51.518;-3.188;2023-06-22T03:39:08;101533.71;;;15.88;92.52
60817;BME280;51921;51.518;-3.188;2023-06-22T03:41:34;101528.98;;;16.15;91.64
60817;BME280;51921;51.518;-3.188;2023-06-22T03:43:59;101525.69;;;15.86;90.53
60817;BME280;51921;51.518;-3.188;2023-06-22T03:46:24;101524.44;;;16.43;87.65
60817;BME280;51921;51.518;-3.188;2023-06-22T03:48:50;101525.10;;;15.50;91.67
60817;BME280;51921;51.518;-3.188;2023-06-22T03:51:15;101524.99;;;15.75;92.87
60817;BME280;51921;51.518;-3.188;2023-06-22T03:53:41;101530.35;;;15.78;91.91
60817;BME280;51921;51.518;-3.188;2023-06-22T03:56:06;101535.51;;;14.87;96.37
60817;BME280;51921;51.518;-3.188;2023-06-22T03:58:32;101531.12;;;15.55;93.92
60817;BME280;51921;51.518;-3.188;2023-06-22T04:00:57;101533.90;;;16.95;88.38
60817;BME280;51921;51.518;-3.188;2023-06-22T04:03:22;101528.98;;;16.11;89.20
60817;BME280;51921;51.518;-3.188;2023-06-22T04:05:48;101528.76;;;15.93;90.66
60817;BME280;51921;51.518;-3.188;2023-06-22T04:08:14;101528.77;;;16.46;89.52
60817;BME280;51921;51.518;-3.188;2023-06-22T04:10:39;101529.53;;;15.47;92.14
60817;BME280;51921;51.518;-3.188;2023-06-22T04:13:04;101532.08;;;16.40;87.85
60817;BME280;51921;51.518;-3.188;2023-06-22T04:15:29;101532.53;;;17.17;84.39
60817;BME280;51921;51.518;-3.188;2023-06-22T04:17:56;101537.76;;;16.91;82.26
60817;BME280;51921;51.518;-3.188;2023-06-22T04:20:20;101533.81;;;16.87;82.42
60817;BME280;51921;51.518;-3.188;2023-06-22T04:22:46;101531.93;;;17.91;77.99
60817;BME280;51921;51.518;-3.188;2023-06-22T04:25:11;101530.50;;;18.27;76.15
60817;BME280;51921;51.518;-3.188;2023-06-22T04:27:36;101531.99;;;16.91;80.27
60817;BME280;51921;51.518;-3.188;2023-06-22T04:30:02;101533.06;;;16.55;82.35
60817;BME280;51921;51.518;-3.188;2023-06-22T04:32:27;101532.60;;;16.68;81.56
60817;BME280;51921;51.518;-3.188;2023-06-22T04:34:53;101533.27;;;16.23;84.92
60817;BME280;51921;51.518;-3.188;2023-06-22T04:37:18;101531.64;;;17.02;81.42
60817;BME280;51921;51.518;-3.188;2023-06-22T04:39:43;101536.36;;;17.53;79.32
60817;BME280;51921;51.518;-3.188;2023-06-22T04:42:09;101539.86;;;17.87;76.20
60817;BME280;51921;51.518;-3.188;2023-06-22T04:44:34;101540.74;;;18.00;75.96
60817;BME280;51921;51.518;-3.188;2023-06-22T04:47:01;101544.81;;;17.98;74.43
60817;BME280;51921;51.518;-3.188;2023-06-22T04:49:26;101546.55;;;17.97;75.22
60817;BME280;51921;51.518;-3.188;2023-06-22T04:51:50;101545.55;;;17.71;75.39
60817;BME280;51921;51.518;-3.188;2023-06-22T04:54:15;101551.06;;;17.22;78.09
60817;BME280;51921;51.518;-3.188;2023-06-22T04:56:41;101554.12;;;17.51;77.70
60817;BME280;51921;51.518;-3.188;2023-06-22T04:59:07;101556.97;;;18.89;72.13
60817;BME280;51921;51.518;-3.188;2023-06-22T05:01:32;101549.39;;;17.72;75.79
60817;BME280;51921;51.518;-3.188;2023-06-22T05:03:57;101546.91;;;17.37;78.34
60817;BME280;51921;51.518;-3.188;2023-06-22T05:06:23;101549.47;;;17.04;78.48
60817;BME280;51921;51.518;-3.188;2023-06-22T05:08:48;101549.13;;;17.41;76.52
60817;BME280;51921;51.518;-3.188;2023-06-22T05:11:13;101549.48;;;18.35;74.45
60817;BME280;51921;51.518;-3.188;2023-06-22T05:13:39;101545.56;;;19.42;66.31
60817;BME280;51921;51.518;-3.188;2023-06-22T05:16:04;101549.45;;;18.43;71.20
60817;BME280;51921;51.518;-3.188;2023-06-22T05:18:30;101546.73;;;18.11;72.83
60817;BME280;51921;51.518;-3.188;2023-06-22T05:20:55;101553.99;;;18.69;71.96
60817;BME280;51921;51.518;-3.188;2023-06-22T05:23:20;101552.75;;;18.86;71.50
60817;BME280;51921;51.518;-3.188;2023-06-22T05:25:46;101548.86;;;17.50;74.85
60817;BME280;51921;51.518;-3.188;2023-06-22T05:28:11;101549.30;;;17.42;74.66
60817;BME280;51921;51.518;-3.188;2023-06-22T05:30:36;101551.46;;;17.89;74.03
60817;BME280;51921;51.518;-3.188;2023-06-22T05:33:02;101551.84;;;17.64;72.80
60817;BME280;51921;51.518;-3.188;2023-06-22T05:35:27;101553.27;;;19.05;69.43
60817;BME280;51921;51.518;-3.188;2023-06-22T05:37:52;101554.36;;;19.13;69.27
60817;BME280;51921;51.518;-3.188;2023-06-22T05:40:18;101551.91;;;19.39;68.08
60817;BME280;51921;51.518;-3.188;2023-06-22T05:42:43;101549.49;;;19.00;69.25
60817;BME280;51921;51.518;-3.188;2023-06-22T05:45:08;101550.01;;;18.56;71.10
60817;BME280;51921;51.518;-3.188;2023-06-22T05:47:33;101549.82;;;19.08;68.49
60817;BME280;51921;51.518;-3.188;2023-06-22T05:49:59;101551.79;;;18.38;70.73
60817;BME280;51921;51.518;-3.188;2023-06-22T05:52:24;101549.43;;;18.55;69.46
60817;BME280;51921;51.518;-3.188;2023-06-22T05:54:50;101545.97;;;19.94;65.18
60817;BME280;51921;51.518;-3.188;2023-06-22T05:57:15;101545.70;;;19.72;65.55
60817;BME280;51921;51.518;-3.188;2023-06-22T05:59:40;101550.82;;;19.03;67.29
60817;BME280;51921;51.518;-3.188;2023-06-22T06:02:05;101554.29;;;19.12;67.69
60817;BME280;51921;51.518;-3.188;2023-06-22T06:04:30;101552.42;;;20.08;63.75
60817;BME280;51921;51.518;-3.188;2023-06-22T06:06:56;101549.05;;;19.86;62.42
60817;BME280;51921;51.518;-3.188;2023-06-22T06:09:21;101550.64;;;19.90;63.29
60817;BME280;51921;51.518;-3.188;2023-06-22T06:11:47;101547.16;;;20.14;62.60
60817;BME280;51921;51.518;-3.188;2023-06-22T06:14:12;101545.26;;;21.26;58.90
60817;BME280;51921;51.518;-3.188;2023-06-22T06:16:37;101543.58;;;21.08;58.20
60817;BME280;51921;51.518;-3.188;2023-06-22T06:19:03;101543.99;;;21.02;58.98
60817;BME280;51921;51.518;-3.188;2023-06-22T06:21:28;101549.60;;;20.65;58.92
60817;BME280;51921;51.518;-3.188;2023-06-22T06:23:53;101550.13;;;20.95;59.33
60817;BME280;51921;51.518;-3.188;2023-06-22T06:26:19;101553.58;;;21.66;57.46
60817;BME280;51921;51.518;-3.188;2023-06-22T06:28:44;101557.75;;;21.47;58.00
60817;BME280;51921;51.518;-3.188;2023-06-22T06:31:09;101557.02;;;20.52;60.47
60817;BME280;51921;51.518;-3.188;2023-06-22T06:33:35;101561.66;;;19.58;62.77
60817;BME280;51921;51.518;-3.188;2023-06-22T06:36:00;101564.46;;;19.59;64.29
60817;BME280;51921;51.518;-3.188;2023-06-22T06:38:25;101564.08;;;20.56;61.57
60817;BME280;51921;51.518;-3.188;2023-06-22T06:40:51;101560.03;;;21.09;59.55
60817;BME280;51921;51.518;-3.188;2023-06-22T06:43:16;101563.24;;;20.23;62.24
60817;BME280;51921;51.518;-3.188;2023-06-22T06:45:41;101566.95;;;20.36;61.52
60817;BME280;51921;51.518;-3.188;2023-06-22T06:48:07;101570.52;;;19.88;63.44
60817;BME280;51921;51.518;-3.188;2023-06-22T06:50:32;101572.03;;;21.22;59.61
60817;BME280;51921;51.518;-3.188;2023-06-22T06:52:58;101575.06;;;20.57;61.31
60817;BME280;51921;51.518;-3.188;2023-06-22T06:55:23;101578.80;;;20.50;61.47
60817;BME280;51921;51.518;-3.188;2023-06-22T06:57:48;101582.89;;;21.04;57.98
60817;BME280;51921;51.518;-3.188;2023-06-22T07:00:15;101584.45;;;19.96;61.48
60817;BME280;51921;51.518;-3.188;2023-06-22T07:02:40;101584.34;;;20.04;62.62
60817;BME280;51921;51.518;-3.188;2023-06-22T07:05:05;101586.76;;;20.15;62.38
60817;BME280;51921;51.518;-3.188;2023-06-22T07:07:30;101591.21;;;19.96;63.39
60817;BME280;51921;51.518;-3.188;2023-06-22T07:09:56;101593.78;;;20.07;62.85
60817;BME280;51921;51.518;-3.188;2023-06-22T07:12:20;101601.07;;;18.28;69.79
60817;BME280;51921;51.518;-3.188;2023-06-22T07:14:46;101601.75;;;14.66;98.09
60817;BME280;51921;51.518;-3.188;2023-06-22T07:17:11;101602.20;;;15.17;99.19
60817;BME280;51921;51.518;-3.188;2023-06-22T07:19:42;101608.81;;;14.91;100.00
60817;BME280;51921;51.518;-3.188;2023-06-22T07:22:02;101607.21;;;15.33;94.71
60817;BME280;51921;51.518;-3.188;2023-06-22T07:24:27;101612.87;;;14.62;100.00
60817;BME280;51921;51.518;-3.188;2023-06-22T07:26:53;101608.48;;;15.37;100.00
60817;BME280;51921;51.518;-3.188;2023-06-22T07:29:19;101607.04;;;16.68;88.71
60817;BME280;51921;51.518;-3.188;2023-06-22T07:31:45;101610.69;;;16.06;92.07
60817;BME280;51921;51.518;-3.188;2023-06-22T07:34:09;101613.83;;;16.04;90.14
60817;BME280;51921;51.518;-3.188;2023-06-22T07:36:34;101619.34;;;19.13;77.18
60817;BME280;51921;51.518;-3.188;2023-06-22T07:39:00;101618.25;;;19.39;74.13
60817;BME280;51921;51.518;-3.188;2023-06-22T07:41:25;101613.60;;;20.19;66.85
60817;BME280;51921;51.518;-3.188;2023-06-22T07:43:50;101611.19;;;21.63;62.45
60817;BME280;51921;51.518;-3.188;2023-06-22T07:46:16;101609.37;;;22.93;54.84
60817;BME280;51921;51.518;-3.188;2023-06-22T07:48:41;101604.12;;;20.42;61.96
60817;BME280;51921;51.518;-3.188;2023-06-22T07:51:06;101599.69;;;23.31;55.27
60817;BME280;51921;51.518;-3.188;2023-06-22T07:53:32;101598.32;;;19.96;62.68
60817;BME280;51921;51.518;-3.188;2023-06-22T07:55:57;101602.23;;;18.39;70.04
60817;BME280;51921;51.518;-3.188;2023-06-22T07:58:22;101595.34;;;20.16;65.53
60817;BME280;51921;51.518;-3.188;2023-06-22T08:00:48;101595.62;;;25.75;48.82
60817;BME280;51921;51.518;-3.188;2023-06-22T08:03:13;101594.22;;;26.23;45.36
60817;BME280;51921;51.518;-3.188;2023-06-22T08:05:38;101594.19;;;28.21;40.52
60817;BME280;51921;51.518;-3.188;2023-06-22T08:08:04;101591.95;;;22.35;47.75
60817;BME280;51921;51.518;-3.188;2023-06-22T08:10:29;101590.19;;;23.57;53.26
60817;BME280;51921;51.518;-3.188;2023-06-22T08:12:54;101587.63;;;27.63;42.45
60817;BME280;51921;51.518;-3.188;2023-06-22T08:15:19;101590.24;;;28.56;38.99
60817;BME280;51921;51.518;-3.188;2023-06-22T08:17:45;101592.96;;;23.10;48.50
60817;BME280;51921;51.518;-3.188;2023-06-22T08:20:11;101590.52;;;19.71;59.74
60817;BME280;51921;51.518;-3.188;2023-06-22T08:22:35;101590.24;;;22.45;59.44
60817;BME280;51921;51.518;-3.188;2023-06-22T08:25:00;101594.25;;;20.69;58.57
60817;BME280;51921;51.518;-3.188;2023-06-22T08:27:26;101588.97;;;27.42;44.83
60817;BME280;51921;51.518;-3.188;2023-06-22T08:29:51;101589.60;;;28.65;39.35
60817;BME280;51921;51.518;-3.188;2023-06-22T08:32:16;101590.53;;;23.58;44.13
60817;BME280;51921;51.518;-3.188;2023-06-22T08:34:41;101587.74;;;25.90;42.61
60817;BME280;51921;51.518;-3.188;2023-06-22T08:37:07;101588.10;;;25.82;42.36
60817;BME280;51921;51.518;-3.188;2023-06-22T08:39:32;101591.33;;;26.06;40.89
60817;BME280;51921;51.518;-3.188;2023-06-22T08:41:57;101595.91;;;25.10;42.83
60817;BME280;51921;51.518;-3.188;2023-06-22T08:44:22;101592.85;;;25.05;43.96
60817;BME280;51921;51.518;-3.188;2023-06-22T08:46:48;101595.51;;;27.82;39.30
60817;BME280;51921;51.518;-3.188;2023-06-22T08:49:13;101591.91;;;27.96;37.59
60817;BME280;51921;51.518;-3.188;2023-06-22T08:51:38;101593.44;;;29.15;36.90
60817;BME280;51921;51.518;-3.188;2023-06-22T08:54:03;101592.80;;;28.93;36.41
60817;BME280;51921;51.518;-3.188;2023-06-22T08:56:29;101595.27;;;27.71;38.56
60817;BME280;51921;51.518;-3.188;2023-06-22T08:58:54;101591.58;;;24.35;43.29
60817;BME280;51921;51.518;-3.188;2023-06-22T09:01:19;101591.87;;;29.26;36.54
60817;BME280;51921;51.518;-3.188;2023-06-22T09:03:44;101594.08;;;28.88;36.18
60817;BME280;51921;51.518;-3.188;2023-06-22T09:06:10;101595.23;;;27.21;37.70
60817;BME280;51921;51.518;-3.188;2023-06-22T09:08:35;101595.09;;;26.51;39.63
60817;BME280;51921;51.518;-3.188;2023-06-22T09:11:00;101593.17;;;26.52;38.65
60817;BME280;51921;51.518;-3.188;2023-06-22T09:13:25;101591.00;;;23.91;45.14
60817;BME280;51921;51.518;-3.188;2023-06-22T09:15:51;101588.27;;;26.94;40.36
60817;BME280;51921;51.518;-3.188;2023-06-22T09:18:16;101591.36;;;28.32;38.96
60817;BME280;51921;51.518;-3.188;2023-06-22T09:20:42;101587.72;;;28.73;37.88
60817;BME280;51921;51.518;-3.188;2023-06-22T09:23:06;101588.19;;;27.00;38.99
60817;BME280;51921;51.518;-3.188;2023-06-22T09:25:32;101592.77;;;28.43;37.37
60817;BME280;51921;51.518;-3.188;2023-06-22T09:27:57;101598.40;;;28.86;37.51
60817;BME280;51921;51.518;-3.188;2023-06-22T09:30:22;101594.62;;;26.43;40.47
60817;BME280;51921;51.518;-3.188;2023-06-22T09:32:47;101594.49;;;27.37;39.32
60817;BME280;51921;51.518;-3.188;2023-06-22T09:35:13;101596.94;;;27.04;39.74
60817;BME280;51921;51.518;-3.188;2023-06-22T09:37:38;101600.67;;;27.17;38.87
60817;BME280;51921;51.518;-3.188;2023-06-22T09:40:05;101599.79;;;27.70;38.26
60817;BME280;51921;51.518;-3.188;2023-06-22T09:42:28;101603.06;;;27.36;36.74
60817;BME280;51921;51.518;-3.188;2023-06-22T09:44:54;101602.85;;;26.63;39.00
60817;BME280;51921;51.518;-3.188;2023-06-22T09:47:19;101607.54;;;23.82;43.84
60817;BME280;51921;51.518;-3.188;2023-06-22T09:49:44;101602.24;;;25.74;41.12
60817;BME280;51921;51.518;-3.188;2023-06-22T09:52:09;101601.33;;;25.91;42.43
60817;BME280;51921;51.518;-3.188;2023-06-22T09:54:35;101601.68;;;25.70;40.37
60817;BME280;51921;51.518;-3.188;2023-06-22T09:57:00;101601.54;;;24.59;41.48
60817;BME280;51921;51.518;-3.188;2023-06-22T09:59:25;101600.58;;;24.74;42.05
60817;BME280;51921;51.518;-3.188;2023-06-22T10:01:50;101599.00;;;26.15;40.81
60817;BME280;51921;51.518;-3.188;2023-06-22T10:04:16;101598.39;;;25.34;40.62
60817;BME280;51921;51.518;-3.188;2023-06-22T10:06:41;101600.03;;;25.23;39.85
60817;BME280;51921;51.518;-3.188;2023-06-22T10:09:07;101603.03;;;24.66;41.29
60817;BME280;51921;51.518;-3.188;2023-06-22T10:11:32;101606.43;;;24.49;43.45
60817;BME280;51921;51.518;-3.188;2023-06-22T10:13:57;101602.22;;;23.02;45.08
60817;BME280;51921;51.518;-3.188;2023-06-22T10:16:24;101605.61;;;21.50;46.55
60817;BME280;51921;51.518;-3.188;2023-06-22T10:18:47;101604.03;;;24.19;41.58
60817;BME280;51921;51.518;-3.188;2023-06-22T10:21:13;101600.54;;;22.29;45.05
60817;BME280;51921;51.518;-3.188;2023-06-22T10:23:38;101602.01;;;24.30;42.27
60817;BME280;51921;51.518;-3.188;2023-06-22T10:26:03;101604.44;;;24.52;40.93
60817;BME280;51921;51.518;-3.188;2023-06-22T10:28:29;101608.30;;;24.38;42.04
60817;BME280;51921;51.518;-3.188;2023-06-22T10:30:54;101596.12;;;25.55;39.40
60817;BME280;51921;51.518;-3.188;2023-06-22T10:33:19;101600.69;;;22.16;47.25
60817;BME280;51921;51.518;-3.188;2023-06-22T10:35:45;101602.79;;;23.31;46.39
60817;BME280;51921;51.518;-3.188;2023-06-22T10:38:10;101607.02;;;23.63;43.78
60817;BME280;51921;51.518;-3.188;2023-06-22T10:40:35;101600.40;;;25.11;40.99
60817;BME280;51921;51.518;-3.188;2023-06-22T10:43:00;101602.42;;;25.31;39.34
60817;BME280;51921;51.518;-3.188;2023-06-22T10:45:26;101600.03;;;24.65;39.56
60817;BME280;51921;51.518;-3.188;2023-06-22T10:47:51;101594.25;;;24.91;39.64
60817;BME280;51921;51.518;-3.188;2023-06-22T10:50:17;101590.19;;;25.17;39.28
60817;BME280;51921;51.518;-3.188;2023-06-22T10:52:42;101590.57;;;25.43;36.58
60817;BME280;51921;51.518;-3.188;2023-06-22T10:55:08;101593.13;;;25.49;37.28
60817;BME280;51921;51.518;-3.188;2023-06-22T10:57:32;101595.15;;;25.24;39.90
60817;BME280;51921;51.518;-3.188;2023-06-22T10:59:57;101601.09;;;25.26;40.43
60817;BME280;51921;51.518;-3.188;2023-06-22T11:02:23;101599.25;;;25.46;40.30
60817;BME280;51921;51.518;-3.188;2023-06-22T11:04:48;101604.79;;;25.37;40.88
60817;BME280;51921;51.518;-3.188;2023-06-22T11:07:14;101599.80;;;24.94;41.66
60817;BME280;51921;51.518;-3.188;2023-06-22T11:09:38;101603.62;;;25.03;41.45
60817;BME280;51921;51.518;-3.188;2023-06-22T11:12:05;101599.51;;;25.54;41.59
60817;BME280;51921;51.518;-3.188;2023-06-22T11:14:29;101607.71;;;24.42;42.78
60817;BME280;51921;51.518;-3.188;2023-06-22T11:16:54;101607.00;;;24.01;42.35
60817;BME280;51921;51.518;-3.188;2023-06-22T11:19:20;101602.81;;;24.25;42.04
60817;BME280;51921;51.518;-3.188;2023-06-22T11:21:45;101600.71;;;24.37;40.64
60817;BME280;51921;51.518;-3.188;2023-06-22T11:24:10;101599.72;;;25.69;39.51
60817;BME280;51921;51.518;-3.188;2023-06-22T11:26:36;101600.77;;;26.41;38.55
60817;BME280;51921;51.518;-3.188;2023-06-22T11:29:01;101600.02;;;25.69;40.20
60817;BME280;51921;51.518;-3.188;2023-06-22T11:31:27;101598.68;;;24.73;41.30
60817;BME280;51921;51.518;-3.188;2023-06-22T11:33:52;101603.71;;;25.25;42.44
60817;BME280;51921;51.518;-3.188;2023-06-22T11:36:17;101599.80;;;23.94;43.92
60817;BME280;51921;51.518;-3.188;2023-06-22T11:38:43;101596.39;;;24.92;43.67
60817;BME280;51921;51.518;-3.188;2023-06-22T11:41:08;101598.49;;;25.55;42.00
60817;BME280;51921;51.518;-3.188;2023-06-22T11:43:34;101595.66;;;25.34;42.29
60817;BME280;51921;51.518;-3.188;2023-06-22T11:46:00;101596.93;;;25.07;42.89
60817;BME280;51921;51.518;-3.188;2023-06-22T11:48:25;101594.27;;;25.80;41.01
60817;BME280;51921;51.518;-3.188;2023-06-22T11:50:50;101599.64;;;25.31;40.62
60817;BME280;51921;51.518;-3.188;2023-06-22T11:53:15;101594.31;;;24.80;40.57
60817;BME280;51921;51.518;-3.188;2023-06-22T11:55:41;101586.95;;;24.74;41.27
60817;BME280;51921;51.518;-3.188;2023-06-22T11:58:06;101588.65;;;25.55;42.11
60817;BME280;51921;51.518;-3.188;2023-06-22T12:00:31;101587.96;;;25.65;41.05
60817;BME280;51921;51.518;-3.188;2023-06-22T12:02:56;101590.70;;;25.29;40.96
60817;BME280;51921;51.518;-3.188;2023-06-22T12:05:22;101593.27;;;24.48;43.62
60817;BME280;51921;51.518;-3.188;2023-06-22T12:07:47;101592.68;;;25.25;42.85
60817;BME280;51921;51.518;-3.188;2023-06-22T12:10:12;101595.81;;;24.81;42.73
60817;BME280;51921;51.518;-3.188;2023-06-22T12:12:38;101600.14;;;24.41;43.90
60817;BME280;51921;51.518;-3.188;2023-06-22T12:15:04;101593.37;;;24.22;44.66
60817;BME280;51921;51.518;-3.188;2023-06-22T12:17:28;101597.72;;;22.96;47.41
60817;BME280;51921;51.518;-3.188;2023-06-22T12:19:53;101599.29;;;23.53;44.79
60817;BME280;51921;51.518;-3.188;2023-06-22T12:22:19;101590.38;;;24.71;43.17
60817;BME280;51921;51.518;-3.188;2023-06-22T12:24:44;101598.94;;;24.90;43.21
60817;BME280;51921;51.518;-3.188;2023-06-22T12:27:09;101596.04;;;24.53;42.98
60817;BME280;51921;51.518;-3.188;2023-06-22T12:29:35;101599.37;;;24.12;44.33
60817;BME280;51921;51.518;-3.188;2023-06-22T12:32:00;101594.71;;;24.42;43.96